Time;durP1;ratioP1;P1;durP2;ratioP2;P2;SDS_P1;SDS_P2;PMS_P1;PMS_P2;Temp;Humidity;BMP_temperature;BMP_pressure;BME280_temperature;BME280_humidity;BME280_pressure;Samples;Min_cycle;Max_cycle;Signal;HPM_P1;HPM_P2
2022/09/09 00:14:28;;;;;;;4.07;1.10;;;14.40;67.90;;;;;;6216704;23;20437;-91
2022/09/09 00:25:53;;;;;;;4.70;1.10;;;14.50;65.20;;;;;;6081356;23;20033;-91
2022/09/09 00:33:16;;;;;;;2.88;1.15;;;14.50;57.60;;;;;;6070372;23;20018;-89
2022/09/09 00:36:48;;;;;;;4.97;1.20;;;14.50;57.00;;;;;;5998984;23;20345;-92
2022/09/09 00:39:49;;;;;;;3.30;1.10;;;14.50;59.80;;;;;;6078000;23;20040;-92
2022/09/09 00:55:57;;;;;;;3.03;1.38;;;14.30;75.40;;;;;;6086288;23;20350;-92
2022/09/09 01:00:01;;;;;;;;;;;;;;;;;;;;;
2022/09/09 01:07:58;;;;;;;7.00;1.50;;;14.30;88.50;;;;;;6012573;23;20334;-93
2022/09/09 01:11:34;;;;;;;;;;;;;;;;;;;;;
2022/09/09 01:15:46;;;;;;;5.75;1.30;;;14.20;92.60;;;;;;5981328;24;20028;-91
2022/09/09 01:19:40;;;;;;;;;;;;;;;;;;;;;
2022/09/09 01:26:50;;;;;;;;;;;;;;;;;;;;;
2022/09/09 01:34:52;;;;;;;5.20;1.05;;;14.10;92.80;;;;;;5926112;24;20024;-92
2022/09/09 01:42:16;;;;;;;5.55;1.40;;;14.00;99.90;;;;;;5848919;24;20022;-92
2022/09/09 01:45:16;;;;;;;4.57;1.30;;;13.90;99.90;;;;;;5928641;24;20080;-92
2022/09/09 01:48:45;;;;;;;5.53;1.27;;;13.90;99.90;;;;;;5961193;24;20109;-92
2022/09/09 01:52:21;;;;;;;3.35;1.20;;;13.80;99.90;;;;;;5848259;24;20046;-92
2022/09/09 01:56:13;;;;;;;4.35;1.70;;;13.80;99.90;;;;;;5862030;24;20067;-89
2022/09/09 02:03:55;;;;;;;3.75;1.05;;;13.80;99.90;;;;;;5911832;24;20081;-92
2022/09/09 02:07:48;;;;;;;;;;;;;;;;;;;;;
2022/09/09 02:26:21;;;;;;;;;;;;;;;;;;;;;
2022/09/09 02:48:11;;;;;;;5.13;1.27;;;13.10;99.90;;;;;;5974020;23;20072;-90
2022/09/09 03:00:42;;;;;;;;;;;;;;;;;;;;;
2022/09/09 03:35:36;;;;;;;7.50;2.65;;;13.10;99.90;;;;;;5875490;24;20024;-90
2022/09/09 03:51:04;;;;;;;;;;;;;;;;;;;;;
2022/09/09 03:54:09;;;;;;;;;;;;;;;;;;;;;
2022/09/09 03:57:42;;;;;;;7.68;2.53;;;13.20;99.90;;;;;;5810735;24;20027;-89
2022/09/09 04:26:13;;;;;;;5.53;1.70;;;13.00;99.90;;;;;;5866136;24;20014;-91
2022/09/09 04:29:00;;;;;;;7.95;2.40;;;13.00;99.90;;;;;;5874348;24;20101;-89
2022/09/09 04:35:55;;;;;;;7.75;2.10;;;13.00;99.90;;;;;;5873509;24;20030;-89
2022/09/09 04:38:44;;;;;;;6.35;1.60;;;13.00;99.90;;;;;;5900448;24;20090;-88
2022/09/09 04:42:21;;;;;;;8.02;1.60;;;13.10;99.90;;;;;;6019008;23;20114;-89
2022/09/09 04:45:16;;;;;;;3.95;1.45;;;13.20;99.90;;;;;;6038605;23;20034;-87
2022/09/09 04:52:10;;;;;;;6.50;1.70;;;13.40;99.90;;;;;;6038263;23;20011;-87
2022/09/09 04:55:09;;;;;;;3.45;1.23;;;13.50;99.90;;;;;;6077029;23;20076;-88
2022/09/09 04:58:22;;;;;;;4.35;1.70;;;13.50;99.90;;;;;;6183664;23;20089;-87
2022/09/09 05:01:24;;;;;;;4.05;1.35;;;13.40;99.90;;;;;;6076222;23;20137;-89
2022/09/09 05:09:06;;;;;;;6.97;2.28;;;13.50;99.90;;;;;;6183568;23;20013;-87
2022/09/09 05:12:08;;;;;;;13.65;4.40;;;13.70;99.90;;;;;;6186138;23;20025;-87
2022/09/09 05:14:57;;;;;;;13.57;5.13;;;13.80;99.90;;;;;;6183949;23;20032;-87
2022/09/09 05:17:45;;;;;;;13.70;5.22;;;13.80;99.90;;;;;;6183340;23;20044;-90
2022/09/09 05:20:32;;;;;;;11.45;4.07;;;13.80;99.90;;;;;;6166536;23;20017;-90
2022/09/09 05:23:19;;;;;;;9.45;3.58;;;13.80;99.90;;;;;;6185074;23;20041;-87
2022/09/09 05:26:08;;;;;;;14.32;3.83;;;13.80;99.90;;;;;;6164106;23;20037;-87
2022/09/09 05:28:56;;;;;;;9.88;4.45;;;13.80;99.90;;;;;;6166434;23;20103;-89
2022/09/09 05:31:48;;;;;;;11.13;3.53;;;13.80;99.90;;;;;;6166212;23;20385;-90
2022/09/09 05:34:37;;;;;;;6.47;2.35;;;13.80;99.90;;;;;;6184765;23;20040;-91
2022/09/09 05:37:25;;;;;;;7.40;2.00;;;13.90;99.90;;;;;;6167769;23;20095;-89
2022/09/09 05:40:12;;;;;;;10.10;2.05;;;13.90;99.90;;;;;;6203925;23;20096;-86
2022/09/09 05:43:03;;;;;;;7.03;2.03;;;13.90;99.90;;;;;;6185092;23;20075;-87
2022/09/09 05:46:02;;;;;;;8.48;2.20;;;14.00;99.90;;;;;;6171546;23;20029;-89
2022/09/09 05:48:51;;;;;;;4.53;1.95;;;14.00;99.90;;;;;;6174418;23;20029;-88
2022/09/09 05:51:38;;;;;;;3.67;1.25;;;14.10;99.90;;;;;;6193293;23;20044;-88
2022/09/09 05:54:28;;;;;;;6.00;1.70;;;14.10;99.90;;;;;;6195119;23;20056;-91
2022/09/09 05:57:15;;;;;;;3.95;1.50;;;14.20;99.90;;;;;;6199647;23;20088;-88
2022/09/09 06:00:21;;;;;;;;;;;;;;;;;;;;;
2022/09/09 06:03:54;;;;;;;4.95;1.85;;;14.20;99.90;;;;;;6198053;23;20083;-89
2022/09/09 06:07:03;;;;;;;3.58;1.35;;;14.30;99.90;;;;;;6173700;23;20060;-86
2022/09/09 06:09:51;;;;;;;4.07;1.85;;;14.30;99.90;;;;;;6169600;23;20029;-89
2022/09/09 06:12:38;;;;;;;4.43;1.60;;;14.30;99.90;;;;;;6166256;23;20087;-87
2022/09/09 06:15:26;;;;;;;4.47;1.73;;;14.40;99.90;;;;;;6189808;23;20021;-89
2022/09/09 06:18:14;;;;;;;4.95;1.25;;;14.40;99.90;;;;;;6174929;23;20067;-89
2022/09/09 06:21:04;;;;;;;1.88;1.30;;;14.50;99.90;;;;;;6196265;23;20025;-90
2022/09/09 06:24:08;;;;;;;3.78;1.50;;;14.60;99.90;;;;;;6173117;23;20025;-89
2022/09/09 06:27:11;;;;;;;4.85;1.67;;;14.60;99.90;;;;;;6168684;23;20025;-89
2022/09/09 06:30:03;;;;;;;4.50;1.52;;;14.60;99.90;;;;;;6167524;23;20025;-91
2022/09/09 06:33:10;;;;;;;3.17;1.40;;;14.60;99.90;;;;;;6166613;23;20057;-89
2022/09/09 06:36:04;;;;;;;6.38;1.38;;;14.70;99.90;;;;;;6189185;23;20104;-90
2022/09/09 06:39:02;;;;;;;5.65;1.55;;;14.70;99.90;;;;;;6167497;23;20021;-92
2022/09/09 06:42:15;;;;;;;3.08;1.30;;;14.80;99.90;;;;;;6166180;23;20032;-91
2022/09/09 06:45:28;;;;;;;7.78;1.95;;;14.80;99.90;;;;;;5991790;23;20039;-87
2022/09/09 06:52:33;;;;;;;;;;;14.90;99.90;;;;;;5959826;24;20089;-91
2022/09/09 06:56:11;;;;;;;6.65;2.08;;;15.10;99.90;;;;;;6008024;23;19922;-91
2022/09/09 06:59:46;;;;;;;8.38;1.60;;;15.20;99.90;;;;;;6015856;23;20347;-90
2022/09/09 07:02:54;;;;;;;6.40;1.77;;;15.20;99.90;;;;;;5970770;23;20032;-88
2022/09/09 07:06:19;;;;;;;;;;;;;;;;;;;;;
2022/09/09 07:10:08;;;;;;;;;;;;;;;;;;;;;
2022/09/09 07:16:45;;;;;;;4.28;1.40;;;15.60;99.90;;;;;;5985541;24;20035;-89
2022/09/09 07:24:57;;;;;;;10.55;1.48;;;15.90;99.90;;;;;;5852281;24;20118;-91
2022/09/09 07:36:09;;;;;;;2.90;1.20;;;16.60;99.90;;;;;;6129573;23;20065;-88
2022/09/09 07:47:56;;;;;;;6.40;1.48;;;16.80;99.90;;;;;;5968012;24;20035;-92
2022/09/09 08:04:21;;;;;;;3.50;1.20;;;17.10;99.90;;;;;;6166248;23;20367;-91
2022/09/09 08:07:21;;;;;;;8.57;1.10;;;17.70;76.70;;;;;;6218120;23;20056;-88
2022/09/09 08:10:41;;;;;;;;;;;;;;;;;;;;;
2022/09/09 08:13:54;;;;;;;;;;;;;;;;;;;;;
2022/09/09 08:17:05;;;;;;;;;;;18.90;15.70;;;;;;6123497;23;20330;-92
2022/09/09 08:20:13;;;;;;;4.47;1.27;;;19.00;1.00;;;;;;6107426;23;19917;-91
2022/09/09 08:23:31;;;;;;;5.88;1.10;;;19.30;1.00;;;;;;6125267;23;20393;-88
2022/09/09 08:26:25;;;;;;;2.85;1.10;;;19.60;1.00;;;;;;6107122;23;20026;-87
2022/09/09 08:29:16;;;;;;;3.13;0.93;;;19.70;1.00;;;;;;6166913;23;20025;-87
2022/09/09 08:32:08;;;;;;;5.82;1.38;;;19.70;1.00;;;;;;6187452;23;20401;-90
2022/09/09 08:34:57;;;;;;;5.22;1.33;;;20.10;1.00;;;;;;6167567;23;20298;-87
2022/09/09 08:37:53;;;;;;;4.50;1.45;;;19.40;1.00;;;;;;6188666;23;20029;-89
2022/09/09 08:41:00;;;;;;;5.18;1.60;;;19.60;1.00;;;;;;6190780;23;20036;-91
2022/09/09 08:44:24;;;;;;;4.13;1.15;;;20.00;1.00;;;;;;6171172;23;20389;-89
2022/09/09 08:47:47;;;;;;;7.10;1.27;;;20.30;1.00;;;;;;6170024;23;20452;-90
2022/09/09 08:50:43;;;;;;;6.88;1.20;;;20.40;1.00;;;;;;6179681;23;20036;-90
2022/09/09 08:54:02;;;;;;;;;;;;;;;;;;;;;
2022/09/09 08:58:01;;;;;;;;;;;;;;;;;;;;;
2022/09/09 09:06:08;;;;;;;;;;;;;;;;;;;;;
2022/09/09 09:34:56;;;;;;;;;;;;;;;;;;;;;
2022/09/09 09:46:33;;;;;;;3.90;1.00;;;20.70;99.90;;;;;;5846142;24;20014;-89
2022/09/09 09:58:36;;;;;;;9.07;1.58;;;20.80;64.90;;;;;;5902125;24;20022;-92
2022/09/09 10:01:38;;;;;;;6.70;1.02;;;21.10;99.90;;;;;;5908887;24;20040;-89
2022/09/09 10:04:48;;;;;;;5.30;1.00;;;23.10;99.90;;;;;;5960458;23;20102;-90
2022/09/09 10:07:38;;;;;;;;;;;24.00;6.30;;;;;;6055018;23;20023;-90
2022/09/09 10:19:31;;;;;;;4.75;1.02;;;23.90;1.00;;;;;;6145880;23;20022;-90
2022/09/09 10:36:05;;;;;;;;;;;;;;;;;;;;;
2022/09/09 10:43:20;;;;;;;3.88;0.80;;;27.80;1.00;;;;;;5959747;24;20039;-91
2022/09/09 10:46:32;;;;;;;;;;;;;;;;;;;;;
2022/09/09 10:49:38;;;;;;;6.23;1.07;;;27.80;1.00;;;;;;6028431;23;20040;-91
2022/09/09 10:52:55;;;;;;;4.00;1.10;;;25.80;1.00;;;;;;6025341;23;20023;-91
2022/09/09 10:56:01;;;;;;;;;;;;;;;;;;;;;
2022/09/09 10:59:28;;;;;;;4.82;0.80;;;23.20;1.00;;;;;;6039671;23;20047;-91
2022/09/09 11:02:26;;;;;;;2.38;0.80;;;22.50;1.00;;;;;;6023173;23;20034;-90
2022/09/09 11:05:40;;;;;;;3.00;0.80;;;21.90;1.00;;;;;;6036536;23;20028;-90
2022/09/09 11:08:38;;;;;;;2.22;0.90;;;20.70;1.00;;;;;;6088833;23;20041;-87
2022/09/09 11:11:41;;;;;;;4.47;1.00;;;19.60;1.00;;;;;;6135916;23;20549;-89
2022/09/09 11:15:12;;;;;;;2.70;1.13;;;19.00;1.00;;;;;;6138512;23;20033;-90
2022/09/09 11:18:04;;;;;;;8.13;0.80;;;18.60;1.00;;;;;;6178391;23;20024;-85
2022/09/09 11:21:00;;;;;;;3.88;0.80;;;18.50;1.00;;;;;;6215027;23;20029;-90
2022/09/09 11:24:58;;;;;;;3.67;0.85;;;18.30;1.00;;;;;;6194690;23;20025;-87
2022/09/09 11:27:33;;;;;;;2.92;0.70;;;18.20;1.00;;;;;;6217210;23;20079;-88
2022/09/09 11:30:26;;;;;;;3.40;0.75;;;18.40;1.00;;;;;;6216670;23;20040;-89
2022/09/09 11:33:58;;;;;;;1.20;0.40;;;18.40;1.00;;;;;;6216547;23;20044;-92
2022/09/09 11:37:30;;;;;;;1.85;0.60;;;18.50;1.00;;;;;;6216896;23;20020;-90
2022/09/09 11:40:27;;;;;;;1.08;0.40;;;18.40;1.00;;;;;;6213605;23;20020;-91
2022/09/09 11:43:21;;;;;;;0.80;0.40;;;18.40;1.00;;;;;;6216067;23;20025;-92
2022/09/09 11:47:12;;;;;;;;;;;;;;;;;;;;;
2022/09/09 11:50:14;;;;;;;1.45;0.60;;;18.50;1.00;;;;;;6176797;23;20039;-90
2022/09/09 11:53:13;;;;;;;0.50;0.35;;;19.00;1.00;;;;;;6217069;23;20051;-87
2022/09/09 11:56:14;;;;;;;0.38;0.38;;;19.10;1.00;;;;;;6218563;23;20103;-91
2022/09/09 11:59:07;;;;;;;0.80;0.30;;;19.10;1.00;;;;;;6196035;23;20340;-90
2022/09/09 12:02:00;;;;;;;;;;;19.90;1.00;;;;;;6220807;23;20294;-90
2022/09/09 12:05:06;;;;;;;1.58;0.35;;;21.10;1.00;;;;;;6219515;23;20202;-90
2022/09/09 12:08:05;;;;;;;1.30;0.40;;;22.30;1.00;;;;;;6220163;23;20103;-91
2022/09/09 12:11:02;;;;;;;1.23;0.35;;;23.50;1.00;;;;;;6217701;23;20095;-92
2022/09/09 12:14:03;;;;;;;1.27;0.30;;;24.60;1.00;;;;;;6218579;23;20070;-89
2022/09/09 12:16:52;;;;;;;1.98;0.40;;;25.60;1.00;;;;;;6219563;23;20016;-90
2022/09/09 12:19:40;;;;;;;1.95;0.40;;;26.10;1.00;;;;;;6219761;23;20031;-91
2022/09/09 12:22:38;;;;;;;1.60;0.60;;;25.10;1.00;;;;;;6227156;23;20348;-90
2022/09/09 12:25:42;;;;;;;3.30;0.40;;;24.40;1.00;;;;;;6224284;23;20025;-90
2022/09/09 12:28:53;;;;;;;3.50;0.73;;;23.80;1.00;;;;;;6221661;23;20081;-89
2022/09/09 12:32:03;;;;;;;2.53;0.43;;;20.90;1.00;;;;;;6221999;23;20028;-88
2022/09/09 12:35:03;;;;;;;2.58;0.73;;;20.10;1.00;;;;;;6222625;23;20120;-91
2022/09/09 12:37:56;;;;;;;5.65;1.20;;;20.00;1.00;;;;;;6221588;23;20025;-88
2022/09/09 12:40:57;;;;;;;3.70;0.68;;;19.80;1.00;;;;;;6220852;23;20052;-88
2022/09/09 12:43:49;;;;;;;5.57;0.82;;;19.90;1.00;;;;;;6219805;23;20326;-84
2022/09/09 12:46:41;;;;;;;;;;;19.80;1.00;;;;;;6218523;23;20094;-86
2022/09/09 12:49:41;;;;;;;2.77;0.67;;;19.60;1.00;;;;;;6220644;23;20031;-89
2022/09/09 12:52:37;;;;;;;4.88;0.90;;;19.20;1.00;;;;;;6222459;23;20513;-89
2022/09/09 12:55:35;;;;;;;4.00;0.80;;;19.10;1.00;;;;;;6229494;23;20032;-89
2022/09/09 12:58:23;;;;;;;2.95;0.70;;;19.00;1.00;;;;;;6233889;23;20064;-89
2022/09/09 13:01:24;;;;;;;5.57;1.00;;;19.40;1.00;;;;;;6232140;23;20048;-88
2022/09/09 13:04:21;;;;;;;5.20;0.60;;;19.70;1.00;;;;;;6238262;22;20024;-84
2022/09/09 13:07:09;;;;;;;3.63;0.63;;;19.90;1.00;;;;;;6239287;22;20076;-82
2022/09/09 13:09:57;;;;;;;2.60;0.70;;;22.10;1.00;;;;;;6235690;23;20043;-89
2022/09/09 13:12:45;;;;;;;1.40;0.50;;;23.90;1.00;;;;;;6229725;23;20024;-89
2022/09/09 13:19:45;;;;;;;2.65;0.60;;;25.40;1.00;;;;;;6224413;23;20084;-88
2022/09/09 13:22:38;;;;;;;2.75;0.70;;;24.50;1.00;;;;;;6225269;23;20024;-87
2022/09/09 13:25:28;;;;;;;2.63;0.57;;;23.70;1.00;;;;;;6222646;23;20029;-88
2022/09/09 13:28:22;;;;;;;2.70;0.60;;;23.60;1.00;;;;;;6216064;23;20020;-89
2022/09/09 13:31:29;;;;;;;5.57;1.20;;;22.50;1.00;;;;;;6219589;23;20130;-88
2022/09/09 13:35:06;;;;;;;5.35;0.77;;;21.50;1.00;;;;;;6213839;23;20025;-86
2022/09/09 13:37:58;;;;;;;3.35;0.73;;;22.60;1.00;;;;;;6215926;23;20052;-89
2022/09/09 13:41:09;;;;;;;2.05;0.63;;;23.80;1.00;;;;;;6216179;23;20025;-90
2022/09/09 13:43:58;;;;;;;2.20;0.70;;;24.30;1.00;;;;;;6218683;23;20032;-90
2022/09/09 13:46:59;;;;;;;2.38;0.75;;;23.90;1.00;;;;;;6219777;23;20025;-88
2022/09/09 13:49:46;;;;;;;2.97;0.70;;;25.00;1.00;;;;;;6196936;23;20082;-88
2022/09/09 13:52:34;;;;;;;2.22;0.60;;;24.60;1.00;;;;;;6215932;23;20025;-84
2022/09/09 13:55:28;;;;;;;4.18;0.70;;;24.30;1.00;;;;;;6221203;23;20028;-88
2022/09/09 13:58:24;;;;;;;2.00;0.57;;;24.30;1.00;;;;;;6219709;23;20021;-87
2022/09/09 14:01:13;;;;;;;5.00;0.93;;;24.50;1.00;;;;;;6228353;23;20027;-86
2022/09/09 14:04:03;;;;;;;3.83;0.30;;;23.70;1.00;;;;;;6230761;23;20035;-87
2022/09/09 14:06:50;;;;;;;2.58;0.45;;;24.60;1.00;;;;;;6230090;23;20308;-90
2022/09/09 14:09:40;;;;;;;2.13;0.57;;;25.10;1.00;;;;;;6225120;23;20028;-89
2022/09/09 14:12:36;;;;;;;4.50;0.57;;;23.20;1.00;;;;;;6227333;23;20106;-87
2022/09/09 14:15:23;;;;;;;1.95;0.40;;;23.20;1.00;;;;;;6216164;23;20032;-86
2022/09/09 14:18:13;;;;;;;1.63;0.50;;;23.40;1.00;;;;;;6213813;23;20059;-83
2022/09/09 14:21:03;;;;;;;2.25;0.50;;;23.70;1.00;;;;;;6215620;23;20051;-86
2022/09/09 14:23:52;;;;;;;2.90;0.52;;;24.30;1.00;;;;;;6214153;23;20028;-87
2022/09/09 14:26:41;;;;;;;3.17;0.60;;;22.90;1.00;;;;;;6215357;23;20111;-87
2022/09/09 14:29:28;;;;;;;3.22;0.63;;;21.80;1.00;;;;;;6215284;23;20024;-86
2022/09/09 14:32:16;;;;;;;6.70;0.50;;;21.40;1.00;;;;;;6217265;23;20035;-88
2022/09/09 14:35:10;;;;;;;1.73;0.57;;;21.80;1.00;;;;;;6220498;23;20474;-89
2022/09/09 14:38:01;;;;;;;4.88;1.10;;;23.10;1.00;;;;;;6214905;23;20028;-87
2022/09/09 14:40:54;;;;;;;2.25;0.45;;;24.20;1.00;;;;;;6212390;23;20020;-89
2022/09/09 14:43:46;;;;;;;3.40;0.40;;;24.30;1.00;;;;;;6214081;23;20286;-88
2022/09/09 14:46:36;;;;;;;0.80;0.45;;;24.30;1.00;;;;;;6213790;23;20055;-89
2022/09/09 14:49:23;;;;;;;3.42;0.65;;;24.60;1.00;;;;;;6216137;23;20024;-90
2022/09/09 14:52:11;;;;;;;1.40;0.40;;;24.50;1.00;;;;;;6216173;23;20116;-87
2022/09/09 14:55:03;;;;;;;1.63;0.57;;;23.90;1.00;;;;;;6214767;23;20052;-88
2022/09/09 14:57:50;;;;;;;1.48;0.75;;;22.60;1.00;;;;;;6214402;23;20053;-90
2022/09/09 15:00:47;;;;;;;1.77;0.65;;;22.80;1.00;;;;;;6225233;23;20314;-90
2022/09/09 15:03:42;;;;;;;4.93;0.90;;;24.00;1.00;;;;;;6223738;23;20024;-88
2022/09/09 15:06:32;;;;;;;2.65;0.40;;;24.90;1.00;;;;;;6244924;23;20086;-89
2022/09/09 15:09:20;;;;;;;6.32;0.80;;;25.00;1.00;;;;;;6243752;23;20382;-88
2022/09/09 15:12:08;;;;;;;1.50;0.57;;;24.80;1.00;;;;;;6246568;23;20031;-88
2022/09/09 15:14:57;;;;;;;5.68;0.68;;;24.40;1.00;;;;;;6246866;23;20127;-90
2022/09/09 15:17:47;;;;;;;3.05;0.60;;;24.50;1.00;;;;;;6247655;23;20020;-88
2022/09/09 15:20:37;;;;;;;2.40;0.80;;;24.10;1.00;;;;;;6249361;22;20352;-87
2022/09/09 15:23:26;;;;;;;2.47;0.60;;;21.70;1.00;;;;;;6228084;23;20024;-85
2022/09/09 15:26:21;;;;;;;2.40;0.70;;;20.80;1.00;;;;;;6229354;23;20031;-88
2022/09/09 15:29:15;;;;;;;7.32;0.70;;;20.20;1.00;;;;;;6247770;23;20093;-90
2022/09/09 15:32:02;;;;;;;5.45;0.90;;;20.00;1.00;;;;;;6226796;23;20070;-88
2022/09/09 15:34:53;;;;;;;1.92;0.43;;;20.30;1.00;;;;;;6224690;23;20032;-88
2022/09/09 15:37:43;;;;;;;3.30;1.15;;;20.00;1.00;;;;;;6227722;23;20024;-88
2022/09/09 15:40:33;;;;;;;2.72;0.80;;;19.60;1.00;;;;;;6246235;23;20020;-87
2022/09/09 15:43:26;;;;;;;1.85;0.60;;;19.30;1.00;;;;;;6234140;23;20055;-89
2022/09/09 15:46:37;;;;;;;2.75;0.60;;;19.10;1.00;;;;;;6250226;23;20020;-88
2022/09/09 15:49:26;;;;;;;2.40;0.70;;;19.00;1.00;;;;;;6247612;23;20484;-89
2022/09/09 15:52:15;;;;;;;7.97;1.00;;;18.90;1.00;;;;;;6247624;23;20039;-88
2022/09/09 15:55:03;;;;;;;1.15;0.47;;;18.90;1.00;;;;;;6245840;23;20035;-90
2022/09/09 15:57:57;;;;;;;3.17;0.70;;;18.80;1.00;;;;;;6246477;23;20094;-90
2022/09/09 16:00:45;;;;;;;3.13;1.00;;;18.80;1.00;;;;;;6217125;23;20407;-89
2022/09/09 16:03:45;;;;;;;1.75;0.80;;;18.80;1.00;;;;;;6224221;23;20020;-88
2022/09/09 16:06:34;;;;;;;2.65;0.50;;;18.80;1.00;;;;;;6219533;23;20614;-87
2022/09/09 16:09:26;;;;;;;1.80;0.52;;;18.70;1.00;;;;;;6217204;23;20403;-90
2022/09/09 16:12:16;;;;;;;2.92;1.05;;;18.70;1.00;;;;;;6219421;23;20114;-89
2022/09/09 16:15:06;;;;;;;2.33;0.90;;;18.60;1.00;;;;;;6223148;23;20036;-88
2022/09/09 16:17:54;;;;;;;3.25;1.20;;;18.60;1.00;;;;;;6216745;23;20398;-88
2022/09/09 16:20:43;;;;;;;5.63;1.27;;;18.60;1.00;;;;;;6218329;23;20138;-89
2022/09/09 16:23:38;;;;;;;4.20;0.80;;;18.70;1.00;;;;;;6217442;23;20025;-89
2022/09/09 16:26:34;;;;;;;3.75;0.90;;;18.80;1.00;;;;;;6216572;23;20503;-88
2022/09/09 16:29:22;;;;;;;2.05;0.70;;;18.80;1.00;;;;;;6216558;23;20024;-87
2022/09/09 16:32:10;;;;;;;2.92;0.50;;;18.70;1.00;;;;;;6215309;23;20392;-88
2022/09/09 16:34:57;;;;;;;2.13;0.55;;;18.60;1.00;;;;;;6215709;23;20035;-88
2022/09/09 16:37:47;;;;;;;5.03;0.63;;;18.50;1.00;;;;;;6218121;23;20029;-88
2022/09/09 16:40:36;;;;;;;0.93;0.50;;;18.60;1.00;;;;;;6216092;23;20109;-89
2022/09/09 16:43:25;;;;;;;2.33;0.47;;;18.60;1.00;;;;;;6219468;23;20046;-89
2022/09/09 16:46:16;;;;;;;1.52;0.47;;;18.60;1.00;;;;;;6218622;23;20016;-89
2022/09/09 16:49:10;;;;;;;1.65;0.50;;;18.50;1.00;;;;;;6226046;23;20112;-90
2022/09/09 16:51:58;;;;;;;3.42;1.00;;;18.30;1.00;;;;;;6218842;23;20102;-90
2022/09/09 16:54:46;;;;;;;2.63;0.65;;;18.10;1.00;;;;;;6220121;23;20112;-92
2022/09/09 16:57:33;;;;;;;4.22;0.57;;;17.90;1.00;;;;;;6216306;23;20397;-89
2022/09/09 17:00:20;;;;;;;2.75;1.23;;;17.80;1.00;;;;;;6222399;23;20327;-90
2022/09/09 17:03:16;;;;;;;5.97;1.02;;;17.70;1.00;;;;;;6243391;23;20482;-89
2022/09/09 17:06:12;;;;;;;1.65;0.70;;;17.60;1.00;;;;;;6248400;23;20035;-88
2022/09/09 17:09:03;;;;;;;5.70;0.73;;;17.50;1.00;;;;;;6204615;23;20422;-88
2022/09/09 17:11:51;;;;;;;1.42;0.80;;;17.40;1.00;;;;;;6245295;23;20047;-89
2022/09/09 17:14:45;;;;;;;2.67;1.00;;;17.30;1.00;;;;;;6246179;23;20209;-89
2022/09/09 17:17:35;;;;;;;1.52;0.90;;;17.20;1.00;;;;;;6246237;23;20019;-89
2022/09/09 17:20:24;;;;;;;2.92;1.65;;;17.10;1.00;;;;;;6225171;23;20435;-88
2022/09/09 17:23:15;;;;;;;2.40;0.80;;;17.00;1.00;;;;;;6248890;23;20111;-88
2022/09/09 17:26:05;;;;;;;1.80;1.00;;;16.80;1.00;;;;;;6224167;23;20089;-90
2022/09/09 17:28:53;;;;;;;2.10;0.95;;;16.70;1.00;;;;;;6245322;23;20051;-89
2022/09/09 17:31:45;;;;;;;3.17;1.08;;;16.60;1.00;;;;;;6247037;23;20074;-91
2022/09/09 17:34:41;;;;;;;4.82;1.42;;;16.50;1.00;;;;;;6226576;23;20028;-90
2022/09/09 17:37:28;;;;;;;2.63;1.48;;;16.40;1.00;;;;;;6223187;23;20315;-91
2022/09/09 17:40:20;;;;;;;3.33;1.70;;;16.30;1.00;;;;;;6247104;23;20360;-90
2022/09/09 17:43:40;;;;;;;5.60;1.52;;;16.20;1.00;;;;;;6237791;23;20007;-89
2022/09/09 17:46:31;;;;;;;6.07;1.55;;;16.10;1.00;;;;;;6253712;23;20034;-89
2022/09/09 17:49:18;;;;;;;5.93;2.30;;;16.10;1.00;;;;;;6250033;23;20020;-88
2022/09/09 17:52:10;;;;;;;6.57;3.15;;;16.00;1.00;;;;;;6227383;23;20523;-89
2022/09/09 17:55:07;;;;;;;3.97;1.63;;;16.00;1.00;;;;;;6254168;23;20023;-89
2022/09/09 17:57:56;;;;;;;3.33;1.30;;;15.90;1.00;;;;;;6231945;23;20020;-88
2022/09/09 18:00:46;;;;;;;1.85;1.00;;;15.90;1.00;;;;;;6245506;23;20086;-87
2022/09/09 18:03:44;;;;;;;4.97;1.35;;;15.90;1.00;;;;;;6248637;23;20279;-86
2022/09/09 18:06:35;;;;;;;3.22;1.05;;;15.90;1.00;;;;;;6227881;23;20024;-89
2022/09/09 18:09:25;;;;;;;3.85;1.10;;;15.90;1.00;;;;;;6250295;22;20141;-91
2022/09/09 18:12:15;;;;;;;3.70;0.80;;;16.00;1.00;;;;;;6244822;23;20032;-88
2022/09/09 18:15:04;;;;;;;2.65;0.80;;;16.00;1.00;;;;;;6246224;23;20031;-88
2022/09/09 18:17:54;;;;;;;3.05;0.82;;;16.00;1.00;;;;;;6247435;23;20020;-90
2022/09/09 18:20:41;;;;;;;5.32;1.40;;;15.90;1.00;;;;;;6249296;23;20047;-91
2022/09/09 18:23:37;;;;;;;3.65;1.77;;;15.90;1.00;;;;;;6247016;23;20105;-90
2022/09/09 18:26:27;;;;;;;4.40;1.35;;;15.90;1.00;;;;;;6227279;23;20024;-89
2022/09/09 18:29:18;;;;;;;5.25;0.93;;;15.90;1.00;;;;;;6244559;23;20032;-87
2022/09/09 18:32:06;;;;;;;4.75;1.10;;;16.00;1.00;;;;;;6228382;23;20035;-90
2022/09/09 18:34:58;;;;;;;1.85;0.80;;;16.00;1.00;;;;;;6224527;23;20117;-89
2022/09/09 18:37:48;;;;;;;3.90;1.05;;;16.10;1.00;;;;;;6224415;23;20035;-89
2022/09/09 18:40:36;;;;;;;4.47;1.02;;;16.00;1.00;;;;;;6247020;22;20428;-88
2022/09/09 18:43:27;;;;;;;4.50;1.00;;;16.10;1.00;;;;;;6220921;23;20024;-89
2022/09/09 18:46:16;;;;;;;6.15;1.35;;;16.10;1.00;;;;;;6243872;23;20027;-89
2022/09/09 18:49:04;;;;;;;3.67;1.35;;;16.00;1.00;;;;;;6244616;23;20024;-88
2022/09/09 18:51:55;;;;;;;6.88;1.70;;;16.00;1.00;;;;;;6245313;23;20031;-92
2022/09/09 18:54:46;;;;;;;3.70;1.40;;;16.00;1.00;;;;;;6252181;23;20024;-89
2022/09/09 18:57:34;;;;;;;2.45;1.25;;;16.00;1.00;;;;;;6251288;23;20035;-91
2022/09/09 19:00:25;;;;;;;3.78;0.80;;;16.00;1.00;;;;;;6248118;23;20099;-91
2022/09/09 19:03:13;;;;;;;3.05;0.80;;;16.00;1.00;;;;;;6247446;23;20024;-91
2022/09/09 19:06:09;;;;;;;6.20;1.27;;;15.90;1.00;;;;;;6250480;23;20055;-90
2022/09/09 19:09:03;;;;;;;4.57;0.95;;;15.80;1.00;;;;;;6230892;23;20035;-93
2022/09/09 19:11:58;;;;;;;2.35;0.80;;;15.70;1.00;;;;;;6254641;22;20021;-91
2022/09/09 19:15:28;;;;;;;4.50;1.90;;;15.50;2.00;;;;;;6253931;23;20351;-90
2022/09/09 19:22:33;;;;;;;;;;;;;;;;;;;;;
2022/09/09 19:25:49;;;;;;;2.25;1.05;;;15.10;25.60;;;;;;6170057;23;20031;-90
2022/09/09 19:30:23;;;;;;;;;;;;;;;;;;;;;
2022/09/09 19:33:29;;;;;;;7.15;2.22;;;15.00;52.30;;;;;;6097809;23;20026;-90
2022/09/09 19:36:18;;;;;;;4.32;1.55;;;14.90;59.10;;;;;;6119769;23;20029;-90
2022/09/09 19:39:28;;;;;;;5.53;1.33;;;14.90;63.50;;;;;;6168324;23;20022;-91
2022/09/09 19:42:47;;;;;;;4.20;1.48;;;14.80;69.90;;;;;;6208821;23;20078;-92
2022/09/09 19:45:40;;;;;;;2.88;1.15;;;14.80;56.60;;;;;;6256251;23;20025;-88
2022/09/09 19:48:36;;;;;;;2.37;1.20;;;14.80;60.40;;;;;;6246206;23;20016;-90
2022/09/09 19:51:25;;;;;;;5.10;1.00;;;14.80;56.10;;;;;;6244898;23;20047;-90
2022/09/09 19:54:13;;;;;;;2.63;0.80;;;14.90;50.20;;;;;;6238814;23;20054;-87
2022/09/09 19:57:00;;;;;;;4.28;1.55;;;14.90;45.70;;;;;;6260922;23;20024;-85
2022/09/09 19:59:48;;;;;;;2.80;1.00;;;14.90;49.20;;;;;;6236335;23;20048;-90
2022/09/09 20:02:38;;;;;;;2.45;0.93;;;14.80;48.60;;;;;;6203434;23;20108;-91
2022/09/09 20:05:33;;;;;;;4.40;1.38;;;14.80;46.20;;;;;;6224125;23;20024;-89
2022/09/09 20:08:20;;;;;;;4.53;1.40;;;14.80;46.20;;;;;;6200455;23;20043;-89
2022/09/09 20:11:12;;;;;;;11.27;1.88;;;14.70;48.70;;;;;;6179457;23;20094;-85
2022/09/09 20:14:35;;;;;;;3.00;0.93;;;14.70;54.60;;;;;;6228543;23;20028;-91
2022/09/09 20:17:31;;;;;;;3.13;0.70;;;14.60;54.00;;;;;;6228068;23;20099;-86
2022/09/09 20:20:19;;;;;;;4.88;1.10;;;14.60;57.60;;;;;;6225702;23;20028;-86
2022/09/09 20:23:07;;;;;;;2.97;1.05;;;14.60;56.40;;;;;;6217018;23;20124;-86
2022/09/09 20:25:59;;;;;;;2.25;1.00;;;14.60;61.90;;;;;;6217145;23;20408;-85
2022/09/09 20:28:50;;;;;;;2.17;0.85;;;14.50;64.30;;;;;;6217852;23;20028;-87
2022/09/09 20:31:39;;;;;;;3.97;1.23;;;14.50;67.90;;;;;;6220325;23;20029;-87
2022/09/09 20:34:29;;;;;;;4.53;2.05;;;14.40;75.80;;;;;;6220459;23;20099;-86
2022/09/09 20:37:20;;;;;;;5.38;1.10;;;14.40;79.40;;;;;;6220045;23;20084;-85
2022/09/09 20:40:14;;;;;;;3.92;1.02;;;14.30;86.20;;;;;;6222399;23;20118;-91
2022/09/09 20:43:15;;;;;;;3.55;0.90;;;14.30;88.80;;;;;;6225532;23;20131;-87
2022/09/09 20:46:37;;;;;;;3.38;0.93;;;14.20;83.70;;;;;;6204676;23;20020;-86
2022/09/09 20:49:29;;;;;;;7.90;1.35;;;14.20;93.10;;;;;;6094552;23;20047;-88
2022/09/09 20:52:30;;;;;;;4.45;1.10;;;14.00;96.10;;;;;;6206272;23;20040;-91
2022/09/09 20:55:41;;;;;;;4.88;1.13;;;14.00;99.90;;;;;;6210966;23;20031;-89
2022/09/09 20:58:31;;;;;;;6.13;1.17;;;13.90;99.90;;;;;;6234205;23;20020;-88
2022/09/09 21:01:30;;;;;;;3.13;1.08;;;13.80;99.90;;;;;;6269098;22;20028;-86
2022/09/09 21:04:18;;;;;;;4.32;0.90;;;13.80;99.90;;;;;;6281541;22;20007;-87
2022/09/09 21:07:08;;;;;;;2.88;1.25;;;13.70;99.90;;;;;;6288517;22;20027;-88
2022/09/09 21:09:56;;;;;;;4.00;1.00;;;13.70;99.90;;;;;;6242561;22;20020;-88
2022/09/09 21:12:43;;;;;;;4.45;1.20;;;13.60;99.90;;;;;;6261917;22;20077;-90
2022/09/09 21:15:31;;;;;;;4.20;1.10;;;13.60;99.90;;;;;;6285840;22;20090;-88
2022/09/09 21:18:22;;;;;;;1.88;0.80;;;13.40;99.90;;;;;;6280968;22;20399;-88
2022/09/09 21:21:09;;;;;;;2.13;0.98;;;13.30;99.90;;;;;;6264950;22;20308;-90
2022/09/09 21:23:59;;;;;;;2.88;0.93;;;13.20;99.90;;;;;;6266229;22;20023;-88
2022/09/09 21:26:46;;;;;;;2.28;1.05;;;13.10;99.90;;;;;;6300570;22;20007;-89